createdAt,value
2022-10-30T00:03:08.625Z,0
2022-10-30T00:08:20.753Z,0
2022-10-30T00:13:33.094Z,0
2022-10-30T00:18:45.762Z,0
2022-10-30T00:23:58.035Z,0
2022-10-30T00:29:10.300Z,0
2022-10-30T00:34:22.599Z,0
2022-10-30T00:39:35.095Z,0
2022-10-30T00:44:47.417Z,0
2022-10-30T00:49:59.629Z,0
2022-10-30T00:55:11.965Z,0
2022-10-30T01:00:24.317Z,0
2022-10-30T01:05:36.667Z,0
2022-10-30T01:10:48.920Z,0
2022-10-30T01:16:01.062Z,0
2022-10-30T01:21:13.323Z,0
2022-10-30T01:26:25.574Z,0
2022-10-30T01:31:37.719Z,0
2022-10-30T01:42:02.044Z,0
2022-10-30T01:47:14.266Z,0
2022-10-30T01:52:26.595Z,0
2022-10-30T01:57:40.454Z,0
2022-10-30T02:02:52.897Z,0
2022-10-30T02:08:05.106Z,0
2022-10-30T02:13:17.424Z,0
2022-10-30T02:18:29.810Z,0
2022-10-30T02:23:42.019Z,0
2022-10-30T02:28:54.247Z,0
2022-10-30T02:34:06.785Z,0
2022-10-30T02:39:19.400Z,0
2022-10-30T02:44:31.738Z,0
2022-10-30T02:49:44.102Z,0
2022-10-30T02:54:56.568Z,0
2022-10-30T03:00:08.956Z,0
2022-10-30T03:05:21.326Z,0
2022-10-30T03:10:33.839Z,0
2022-10-30T03:15:46.073Z,0
2022-10-30T03:20:58.326Z,0
2022-10-30T03:26:10.977Z,0
2022-10-30T03:31:23.198Z,0
2022-10-30T03:36:35.499Z,0
2022-10-30T03:41:47.996Z,0
2022-10-30T03:47:00.297Z,0
2022-10-30T03:52:12.484Z,0
2022-10-30T03:57:24.839Z,0
2022-10-30T04:02:37.133Z,0
2022-10-30T04:07:49.370Z,0
2022-10-30T04:13:01.733Z,0
2022-10-30T04:18:14.010Z,0
2022-10-30T04:23:26.201Z,0
2022-10-30T04:28:38.777Z,0
2022-10-30T04:33:50.976Z,0
2022-10-30T04:39:03.269Z,0
2022-10-30T04:44:15.772Z,0
2022-10-30T04:49:28.158Z,0
2022-10-30T04:54:40.572Z,0
2022-10-30T04:59:52.952Z,0
2022-10-30T05:10:17.862Z,0
2022-10-30T05:15:30.196Z,0
2022-10-30T05:20:42.372Z,0
2022-10-30T05:25:54.835Z,0
2022-10-30T05:31:07.066Z,0
2022-10-30T05:36:19.108Z,0
2022-10-30T05:41:31.448Z,0
2022-10-30T05:46:43.877Z,0
2022-10-30T05:51:56.005Z,154
2022-10-30T05:57:08.287Z,798
2022-10-30T06:02:20.644Z,1683
2022-10-30T06:07:33.225Z,2302
2022-10-30T06:12:45.415Z,2845
2022-10-30T06:17:57.943Z,3574
2022-10-30T06:23:09.988Z,4480
2022-10-30T06:28:22.298Z,5046
2022-10-30T06:33:34.557Z,5129
2022-10-30T06:38:46.956Z,5122
2022-10-30T06:43:59.345Z,5110
2022-10-30T06:49:11.836Z,5198
2022-10-30T06:54:24.220Z,5198
2022-10-30T06:59:36.418Z,5083
2022-10-30T07:04:49.007Z,5124
2022-10-30T07:10:01.307Z,5198
2022-10-30T07:15:13.509Z,5161
2022-10-30T07:20:25.723Z,5133
2022-10-30T07:25:38.196Z,5094
2022-10-30T07:30:50.695Z,5050
2022-10-30T07:36:03.120Z,5170
2022-10-30T07:41:15.475Z,5133
2022-10-30T07:46:27.966Z,5202
2022-10-30T07:51:40.312Z,5149
2022-10-30T08:02:05.386Z,5149
2022-10-30T08:07:17.994Z,5170
2022-10-30T08:12:30.466Z,5179
2022-10-30T08:17:42.773Z,5154
2022-10-30T08:22:55.169Z,5140
2022-10-30T08:28:07.550Z,5147
2022-10-30T08:33:18.841Z,5101
2022-10-30T08:38:31.448Z,5204
2022-10-30T08:43:44.015Z,5119
2022-10-30T08:48:56.335Z,5211
2022-10-30T08:54:08.953Z,5154
2022-10-30T08:59:21.552Z,5181
2022-10-30T09:04:33.505Z,5172
2022-10-30T09:09:45.977Z,5191
2022-10-30T09:14:58.288Z,5172
2022-10-30T09:20:10.708Z,5200
2022-10-30T09:25:23.054Z,5099
2022-10-30T09:30:35.460Z,5191
2022-10-30T09:35:47.986Z,5204
2022-10-30T09:41:00.404Z,5152
2022-10-30T09:46:12.924Z,5135
2022-10-30T09:51:25.470Z,5214
2022-10-30T09:56:37.937Z,5234
2022-10-30T10:01:50.402Z,5234
2022-10-30T10:07:02.652Z,5225
2022-10-30T10:12:15.182Z,5225
2022-10-30T10:17:27.578Z,5225
2022-10-30T10:22:40.204Z,5230
2022-10-30T10:27:52.564Z,5234
2022-10-30T10:33:05.074Z,5211
2022-10-30T10:38:17.496Z,5216
2022-10-30T10:43:29.954Z,5225
2022-10-30T10:48:42.453Z,5255
2022-10-30T10:53:54.920Z,5257
2022-10-30T10:59:07.432Z,5250
2022-10-30T11:04:19.921Z,5260
2022-10-30T11:09:32.578Z,5253
2022-10-30T11:14:45.912Z,5255
2022-10-30T11:19:58.419Z,5239
2022-10-30T11:25:10.908Z,5267
2022-10-30T11:30:25.160Z,5264
2022-10-30T11:35:37.229Z,5262
2022-10-30T11:40:49.449Z,5221
2022-10-30T11:46:01.558Z,5264
2022-10-30T11:51:13.901Z,5234
2022-10-30T11:56:26.492Z,5262
2022-10-30T12:01:38.816Z,5246
2022-10-30T12:06:51.193Z,5232
2022-10-30T12:12:06.597Z,5244
2022-10-30T12:17:15.976Z,5267
2022-10-30T12:22:28.263Z,5271
2022-10-30T12:27:40.475Z,5273
2022-10-30T12:32:53.136Z,5271
2022-10-30T12:38:05.306Z,5230
2022-10-30T12:43:17.660Z,5250
2022-10-30T12:48:30.132Z,5276
2022-10-30T12:53:42.810Z,5278
2022-10-30T12:58:55.214Z,5283
2022-10-30T13:04:08.022Z,5257
2022-10-30T13:09:20.281Z,5239
2022-10-30T13:14:32.624Z,5244
2022-10-30T13:19:44.993Z,5273
2022-10-30T13:24:59.225Z,5241
2022-10-30T13:30:09.753Z,5264
2022-10-30T13:35:22.464Z,5276
2022-10-30T13:40:34.745Z,5280
2022-10-30T13:45:47.299Z,5248
2022-10-30T13:51:00.023Z,5283
2022-10-30T13:56:12.204Z,5285
2022-10-30T14:01:24.531Z,5262
2022-10-30T14:11:48.891Z,5269
2022-10-30T14:17:01.071Z,5271
2022-10-30T14:22:13.334Z,5285
2022-10-30T14:27:25.799Z,5276
2022-10-30T14:32:38.137Z,5292
2022-10-30T14:37:50.312Z,5267
2022-10-30T14:43:02.689Z,5264
2022-10-30T14:48:14.828Z,5271
2022-10-30T14:53:27.153Z,5276
2022-10-30T14:58:39.614Z,5285
2022-10-30T15:03:52.114Z,5257
2022-10-30T15:09:04.429Z,5255
2022-10-30T15:14:21.411Z,5260
2022-10-30T15:19:28.885Z,5269
2022-10-30T15:24:41.212Z,5241
2022-10-30T15:29:53.330Z,4873
2022-10-30T15:35:05.721Z,4160
2022-10-30T15:40:18.132Z,3429
2022-10-30T15:45:30.304Z,2451
2022-10-30T15:50:42.724Z,1623
2022-10-30T15:55:54.933Z,906
2022-10-30T16:01:07.199Z,259
2022-10-30T16:06:19.381Z,0
2022-10-30T16:11:31.773Z,0
2022-10-30T16:16:44.047Z,0
2022-10-30T16:21:56.265Z,0
2022-10-30T16:27:08.389Z,0
2022-10-30T16:32:21.021Z,0
2022-10-30T16:37:33.233Z,0
2022-10-30T16:42:45.469Z,0
2022-10-30T16:53:09.980Z,0
2022-10-30T16:58:22.206Z,0
2022-10-30T17:03:34.499Z,0
2022-10-30T17:08:46.760Z,0
2022-10-30T17:13:59.219Z,0
2022-10-30T17:19:11.354Z,0
2022-10-30T17:24:23.692Z,0
2022-10-30T17:29:35.965Z,0
2022-10-30T17:34:48.054Z,0
2022-10-30T17:40:00.291Z,0
2022-10-30T17:45:12.663Z,0
2022-10-30T17:50:24.944Z,0
2022-10-30T17:55:37.240Z,0
2022-10-30T18:06:01.733Z,0
2022-10-30T18:11:14.016Z,0
2022-10-30T18:16:26.216Z,0
2022-10-30T18:21:38.732Z,0
2022-10-30T18:26:51.312Z,0
2022-10-30T18:32:08.525Z,0
2022-10-30T18:37:15.960Z,0
2022-10-30T18:42:28.271Z,0
2022-10-30T18:47:40.415Z,0
2022-10-30T18:52:52.854Z,0
2022-10-30T18:58:05.018Z,0
2022-10-30T19:03:17.479Z,0
2022-10-30T19:08:30.029Z,0
2022-10-30T19:13:42.318Z,0
2022-10-30T19:18:54.614Z,0
2022-10-30T19:24:07.036Z,0
2022-10-30T19:39:43.676Z,0
2022-10-30T19:44:55.843Z,0
2022-10-30T19:50:08.133Z,0
2022-10-30T19:55:20.433Z,0
2022-10-30T20:00:33.411Z,0
2022-10-30T20:05:45.648Z,0
2022-10-30T20:10:58.000Z,0
2022-10-30T20:16:10.281Z,0
2022-10-30T20:21:22.523Z,0
2022-10-30T20:26:35.087Z,0
2022-10-30T20:31:47.360Z,0
2022-10-30T20:36:59.865Z,0
2022-10-30T20:42:12.108Z,0
2022-10-30T20:53:52.445Z,0
2022-10-30T20:59:04.776Z,0
2022-10-30T21:04:17.092Z,0
2022-10-30T21:09:29.309Z,0
2022-10-30T21:14:41.574Z,0
2022-10-30T21:19:54.113Z,0
2022-10-30T21:25:06.549Z,0
2022-10-30T21:30:18.944Z,0
2022-10-30T21:35:31.213Z,0
2022-10-30T21:40:43.768Z,0
2022-10-30T21:45:56.027Z,0
2022-10-30T21:51:08.407Z,0
2022-10-30T21:56:20.630Z,0
2022-10-30T22:01:33.202Z,0
2022-10-30T22:11:57.677Z,0
2022-10-30T22:17:09.813Z,0
2022-10-30T22:22:22.120Z,0
2022-10-30T22:27:34.447Z,0
2022-10-30T22:32:46.990Z,0
2022-10-30T22:37:59.219Z,0
2022-10-30T22:43:11.678Z,0
2022-10-30T22:48:24.083Z,0
2022-10-30T22:53:36.377Z,0
2022-10-30T22:58:48.553Z,0
2022-10-30T23:04:01.049Z,0
2022-10-30T23:09:13.333Z,0
2022-10-30T23:14:25.770Z,0
2022-10-30T23:19:38.032Z,0
2022-10-30T23:24:50.513Z,0
2022-10-30T23:30:02.920Z,0
2022-10-30T23:35:15.769Z,0
2022-10-30T23:40:27.888Z,0
2022-10-30T23:45:40.248Z,0
2022-10-30T23:50:52.499Z,0
2022-10-30T23:56:04.743Z,0
